createdAt,value
2018-09-20T00:03:40.856Z,18.80
2018-09-20T00:08:45.808Z,22.07
2018-09-20T00:13:50.848Z,20.10
2018-09-20T00:18:55.789Z,22.57
2018-09-20T00:24:00.768Z,19.67
2018-09-20T00:29:05.675Z,19.87
2018-09-20T00:34:10.533Z,18.07
2018-09-20T00:39:15.890Z,18.97
2018-09-20T00:44:20.813Z,17.23
2018-09-20T00:49:25.790Z,16.17
2018-09-20T00:54:30.792Z,20.97
2018-09-20T00:59:35.921Z,20.83
2018-09-20T01:04:40.925Z,19.80
2018-09-20T01:09:52.019Z,20.13
2018-09-20T01:14:56.885Z,20.23
2018-09-20T01:20:01.799Z,20.50
2018-09-20T01:25:06.925Z,19.83
2018-09-20T01:30:11.895Z,14.17
2018-09-20T01:35:16.746Z,18.73
2018-09-20T01:40:21.844Z,21.07
2018-09-20T01:45:26.801Z,20.60
2018-09-20T01:50:32.004Z,19.13
2018-09-20T01:55:37.024Z,20.03
2018-09-20T02:00:41.978Z,16.40
2018-09-20T02:05:47.231Z,16.33
2018-09-20T02:10:52.119Z,20.67
2018-09-20T02:15:56.978Z,14.77
2018-09-20T02:21:02.309Z,16.97
2018-09-20T02:26:07.617Z,17.73
2018-09-20T02:31:12.474Z,19.07
2018-09-20T02:36:17.378Z,15.77
2018-09-20T02:41:22.436Z,17.77
2018-09-20T02:46:27.347Z,17.23
2018-09-20T02:51:32.279Z,15.47
2018-09-20T02:56:37.260Z,17.40
2018-09-20T03:01:42.253Z,18.17
2018-09-20T03:06:47.140Z,17.53
2018-09-20T03:11:52.052Z,18.90
2018-09-20T03:16:56.873Z,16.33
2018-09-20T03:22:01.772Z,18.23
2018-09-20T03:27:06.730Z,18.00
2018-09-20T03:32:11.689Z,18.77
2018-09-20T03:37:16.717Z,19.20
2018-09-20T03:42:21.844Z,22.40
2018-09-20T03:47:26.823Z,23.60
2018-09-20T03:52:31.725Z,19.87
2018-09-20T03:57:36.627Z,16.23
2018-09-20T04:02:41.777Z,20.13
2018-09-20T04:07:46.667Z,19.57
2018-09-20T04:12:51.717Z,17.87
2018-09-20T04:17:56.690Z,24.03
2018-09-20T04:23:01.709Z,20.33
2018-09-20T04:28:06.679Z,17.43
2018-09-20T04:33:11.723Z,22.87
2018-09-20T04:38:16.644Z,22.70
2018-09-20T04:43:21.651Z,22.17
2018-09-20T04:48:26.661Z,22.53
2018-09-20T04:53:31.494Z,19.77
2018-09-20T04:58:37.394Z,22.77
2018-09-20T05:03:42.320Z,19.47
2018-09-20T05:08:47.297Z,18.30
2018-09-20T05:13:52.393Z,22.13
2018-09-20T05:18:57.375Z,24.13
2018-09-20T05:24:02.407Z,19.97
2018-09-20T05:29:07.473Z,23.30
2018-09-20T05:34:18.840Z,22.40
2018-09-20T05:39:23.824Z,21.47
2018-09-20T05:44:29.092Z,21.87
2018-09-20T05:49:35.072Z,26.27
2018-09-20T05:54:41.683Z,25.17
2018-09-20T05:59:46.853Z,27.97
2018-09-20T06:04:51.922Z,22.80
2018-09-20T06:09:56.994Z,20.17
2018-09-20T06:15:01.910Z,25.07
2018-09-20T06:20:06.988Z,24.83
2018-09-20T06:25:11.902Z,20.17
2018-09-20T06:30:17.108Z,25.17
2018-09-20T06:35:22.840Z,18.63
2018-09-20T06:40:27.692Z,24.13
2018-09-20T06:45:32.770Z,19.83
2018-09-20T06:50:37.921Z,17.50
2018-09-20T06:55:43.376Z,20.07
2018-09-20T07:00:48.427Z,14.63
2018-09-20T07:05:54.549Z,19.27
2018-09-20T07:10:59.713Z,18.00
2018-09-20T07:16:04.665Z,19.37
2018-09-20T07:21:09.651Z,19.23
2018-09-20T07:26:23.190Z,17.47
2018-09-20T07:31:28.369Z,15.23
2018-09-20T07:36:34.704Z,17.70
2018-09-20T07:41:41.116Z,16.30
2018-09-20T07:46:46.074Z,11.10
2018-09-20T07:51:51.122Z,22.33
2018-09-20T07:56:56.118Z,11.30
2018-09-20T08:02:01.279Z,13.53
2018-09-20T08:07:06.227Z,14.93
2018-09-20T08:12:11.249Z,14.33
2018-09-20T08:17:16.143Z,13.03
2018-09-20T08:22:21.035Z,10.90
2018-09-20T08:27:25.920Z,16.27
2018-09-20T08:32:30.825Z,28.50
2018-09-20T08:37:36.288Z,14.30
2018-09-20T08:42:41.259Z,22.87
2018-09-20T08:47:46.263Z,12.30
2018-09-20T08:52:51.284Z,15.40
2018-09-20T08:57:57.126Z,11.73
2018-09-20T09:03:02.017Z,16.77
2018-09-20T09:08:07.230Z,14.43
2018-09-20T09:13:12.214Z,13.37
2018-09-20T09:18:17.413Z,16.73
2018-09-20T09:23:22.300Z,16.27
2018-09-20T09:28:27.863Z,16.20
2018-09-20T09:33:32.966Z,13.67
2018-09-20T09:38:38.089Z,13.70
2018-09-20T09:43:43.038Z,17.43
2018-09-20T09:48:48.823Z,13.83
2018-09-20T09:53:56.921Z,16.33
2018-09-20T09:59:01.838Z,21.93
2018-09-20T10:04:07.118Z,13.43
2018-09-20T10:09:12.884Z,19.48
2018-09-20T10:14:18.034Z,14.95
2018-09-20T10:19:22.985Z,17.65
2018-09-20T10:24:28.017Z,15.78
2018-09-20T10:29:33.412Z,21.17
2018-09-20T10:34:38.413Z,17.12
2018-09-20T10:39:43.378Z,15.53
2018-09-20T10:44:48.341Z,17.40
2018-09-20T10:49:53.302Z,25.97
2018-09-20T10:54:58.527Z,21.45
2018-09-20T11:00:03.542Z,30.15
2018-09-20T11:05:08.433Z,35.75
2018-09-20T11:10:13.519Z,36.75
2018-09-20T11:15:18.356Z,31.17
2018-09-20T11:20:23.236Z,31.48
2018-09-20T11:25:28.122Z,33.55
2018-09-20T11:30:32.983Z,33.58
2018-09-20T11:35:37.904Z,28.83
2018-09-20T11:40:42.751Z,26.50
2018-09-20T11:45:47.717Z,26.85
2018-09-20T11:50:52.589Z,29.30
2018-09-20T11:55:57.753Z,26.70
2018-09-20T12:01:02.757Z,29.80
2018-09-20T12:06:08.593Z,27.25
2018-09-20T12:11:14.399Z,24.70
2018-09-20T12:16:24.148Z,25.52
2018-09-20T12:21:29.073Z,28.00
2018-09-20T12:26:34.109Z,25.43
2018-09-20T12:31:39.110Z,25.68
2018-09-20T12:36:44.411Z,20.75
2018-09-20T12:41:49.650Z,24.02
2018-09-20T12:46:55.778Z,26.82
2018-09-20T12:52:01.567Z,27.58
2018-09-20T12:57:22.053Z,24.15
2018-09-20T13:02:27.099Z,23.73
2018-09-20T13:07:32.239Z,22.32
2018-09-20T13:12:37.289Z,17.00
2018-09-20T13:17:42.401Z,24.05
2018-09-20T13:22:47.420Z,17.15
2018-09-20T13:27:52.467Z,16.87
2018-09-20T13:32:57.398Z,15.50
2018-09-20T13:38:02.454Z,15.48
2018-09-20T13:43:07.658Z,12.98
2018-09-20T13:48:12.602Z,14.55
2018-09-20T13:53:17.528Z,12.47
2018-09-20T13:58:22.521Z,12.18
2018-09-20T14:03:27.584Z,14.15
2018-09-20T14:08:33.921Z,12.18
2018-09-20T14:13:39.005Z,13.40
2018-09-20T14:18:44.008Z,19.60
2018-09-20T14:23:49.056Z,10.88
2018-09-20T14:28:54.389Z,15.20
2018-09-20T14:34:00.486Z,11.73
2018-09-20T14:39:13.849Z,13.58
2018-09-20T14:44:18.757Z,16.62
2018-09-20T14:49:23.777Z,13.72
2018-09-20T14:54:28.654Z,13.13
2018-09-20T14:59:33.669Z,15.72
2018-09-20T15:04:38.547Z,15.10
2018-09-20T15:09:43.610Z,19.67
2018-09-20T15:14:49.492Z,9.33
2018-09-20T15:19:54.398Z,11.25
2018-09-20T15:24:59.362Z,13.95
2018-09-20T15:30:04.587Z,12.68
2018-09-20T15:35:09.474Z,16.50
2018-09-20T15:40:14.906Z,24.98
2018-09-20T15:45:19.878Z,14.07
2018-09-20T15:50:25.809Z,17.35
2018-09-20T15:55:30.849Z,15.08
2018-09-20T16:00:36.734Z,15.32
2018-09-20T16:05:42.516Z,17.77
2018-09-20T16:10:48.077Z,19.32
2018-09-20T16:15:53.581Z,14.07
2018-09-20T16:20:59.275Z,12.95
2018-09-20T16:26:04.446Z,12.95
2018-09-20T16:32:27.485Z,20.02
2018-09-20T16:37:42.112Z,17.87
2018-09-20T16:42:53.485Z,11.87
2018-09-20T16:47:58.516Z,13.43
2018-09-20T16:53:37.770Z,16.30
2018-09-20T16:58:48.784Z,20.53
2018-09-20T17:03:54.969Z,14.30
2018-09-20T17:08:59.927Z,13.93
2018-09-20T17:14:05.191Z,14.53
2018-09-20T17:19:10.351Z,13.33
2018-09-20T17:24:15.601Z,15.30
2018-09-20T17:29:20.616Z,10.23
2018-09-20T17:34:25.922Z,13.80
2018-09-20T17:39:32.142Z,12.30
2018-09-20T17:44:37.231Z,15.40
2018-09-20T17:49:42.245Z,13.00
2018-09-20T17:54:48.401Z,13.37
2018-09-20T17:59:53.505Z,15.70
2018-09-20T18:05:00.750Z,12.23
2018-09-20T18:10:05.718Z,14.57
2018-09-20T18:15:10.755Z,14.20
2018-09-20T18:20:16.506Z,15.03
2018-09-20T18:25:22.242Z,16.77
2018-09-20T18:30:27.900Z,13.23
2018-09-20T18:35:33.056Z,14.37
2018-09-20T18:40:38.175Z,13.87
2018-09-20T18:45:43.132Z,13.97
2018-09-20T18:50:48.348Z,15.97
2018-09-20T18:55:53.310Z,19.57
2018-09-20T19:00:58.358Z,18.03
2018-09-20T19:06:03.310Z,23.17
2018-09-20T19:11:08.326Z,14.40
2018-09-20T19:16:13.441Z,17.93
2018-09-20T19:21:18.412Z,17.10
2018-09-20T19:26:23.605Z,23.67
2018-09-20T19:31:28.596Z,20.90
2018-09-20T19:36:34.038Z,13.03
2018-09-20T19:41:42.093Z,14.87
2018-09-20T19:46:56.063Z,18.83
2018-09-20T19:52:01.905Z,14.57
2018-09-20T19:57:07.420Z,11.63
2018-09-20T20:02:12.602Z,11.23
2018-09-20T20:07:17.530Z,14.17
2018-09-20T20:12:22.420Z,12.30
2018-09-20T20:17:27.327Z,10.60
2018-09-20T20:22:32.357Z,10.40
2018-09-20T20:27:38.046Z,12.17
2018-09-20T20:32:44.371Z,10.50
2018-09-20T20:37:49.329Z,9.00
2018-09-20T20:42:54.236Z,12.20
2018-09-20T20:47:59.284Z,12.10
2018-09-20T20:53:04.980Z,13.73
2018-09-20T20:58:10.562Z,7.47
2018-09-20T21:03:16.369Z,15.33
2018-09-20T21:08:21.232Z,10.37
2018-09-20T21:13:26.132Z,14.37
2018-09-20T21:18:31.241Z,32.90
2018-09-20T21:23:36.471Z,12.30
2018-09-20T21:28:41.380Z,16.30
2018-09-20T21:33:46.752Z,14.10
2018-09-20T21:38:51.660Z,12.87
2018-09-20T21:43:56.686Z,13.57
2018-09-20T22:05:09.594Z,12.60
2018-09-20T22:10:14.577Z,11.40
2018-09-20T22:15:33.740Z,13.17
2018-09-20T22:20:41.952Z,14.33
2018-09-20T22:25:46.942Z,15.50
2018-09-20T22:30:51.977Z,19.50
2018-09-20T22:35:58.727Z,11.30
2018-09-20T22:41:24.143Z,12.23
2018-09-20T22:46:29.628Z,13.33
2018-09-20T22:51:36.040Z,11.87
2018-09-20T22:56:42.672Z,14.37
2018-09-20T23:01:47.697Z,13.90
2018-09-20T23:06:52.574Z,11.10
2018-09-20T23:11:57.569Z,13.50
2018-09-20T23:17:02.661Z,14.97
2018-09-20T23:22:07.734Z,11.13
2018-09-20T23:27:12.896Z,15.27
2018-09-20T23:32:17.844Z,10.63
2018-09-20T23:37:22.869Z,14.23
2018-09-20T23:42:28.291Z,13.60
2018-09-20T23:47:33.137Z,11.90
2018-09-20T23:52:38.323Z,10.87
2018-09-20T23:57:43.278Z,10.87
